createdAt,value
2019-05-01T00:00:28.720Z,45.10
2019-05-01T00:03:02.792Z,49.65
2019-05-01T00:05:31.336Z,48.40
2019-05-01T00:07:58.041Z,42.65
2019-05-01T00:10:25.431Z,46.58
2019-05-01T00:12:52.266Z,41.37
2019-05-01T00:15:21.354Z,46.28
2019-05-01T00:17:48.130Z,43.58
2019-05-01T00:20:15.825Z,41.65
2019-05-01T00:22:42.541Z,40.00
2019-05-01T00:25:09.421Z,45.23
2019-05-01T00:27:36.113Z,35.68
2019-05-01T00:30:06.604Z,40.28
2019-05-01T00:32:33.348Z,39.55
2019-05-01T00:35:00.128Z,36.55
2019-05-01T00:37:26.879Z,37.33
2019-05-01T00:39:53.705Z,38.23
2019-05-01T00:42:20.405Z,40.20
2019-05-01T00:44:47.180Z,38.63
2019-05-01T00:47:13.894Z,54.08
2019-05-01T00:49:40.637Z,43.55
2019-05-01T00:52:07.416Z,63.65
2019-05-01T00:54:35.943Z,57.65
2019-05-01T00:57:04.440Z,54.75
2019-05-01T00:59:49.653Z,63.65
2019-05-01T01:02:34.808Z,40.17
2019-05-01T01:05:01.583Z,43.65
2019-05-01T01:07:28.284Z,83.33
2019-05-01T01:09:55.008Z,89.55
2019-05-01T01:12:21.859Z,87.57
2019-05-01T01:14:48.553Z,73.30
2019-05-01T01:17:15.328Z,72.67
2019-05-01T01:19:42.063Z,41.88
2019-05-01T01:22:08.882Z,87.10
2019-05-01T01:24:35.658Z,93.70
2019-05-01T01:27:02.462Z,67.53
2019-05-01T01:29:29.229Z,38.23
2019-05-01T01:31:56.077Z,88.85
2019-05-01T01:34:22.764Z,96.92
2019-05-01T01:36:49.507Z,139.77
2019-05-01T01:39:16.373Z,75.57
2019-05-01T01:41:43.183Z,79.77
2019-05-01T01:44:12.198Z,93.67
2019-05-01T01:46:40.977Z,173.87
2019-05-01T01:49:08.169Z,132.55
2019-05-01T01:51:35.069Z,124.80
2019-05-01T01:54:02.221Z,67.85
2019-05-01T01:56:29.008Z,384.37
2019-05-01T01:58:56.520Z,70.10
2019-05-01T02:01:27.801Z,188.22
2019-05-01T02:03:59.321Z,234.40
2019-05-01T02:06:26.024Z,45.10
2019-05-01T02:08:56.691Z,161.00
2019-05-01T02:11:21.519Z,175.60
2019-05-01T02:13:48.726Z,471.10
2019-05-01T02:16:15.443Z,286.75
2019-05-01T02:18:42.212Z,120.90
2019-05-01T02:21:08.909Z,173.35
2019-05-01T02:23:35.607Z,123.22
2019-05-01T02:26:02.744Z,61.30
2019-05-01T02:28:31.768Z,225.05
2019-05-01T02:31:28.065Z,58.42
2019-05-01T02:33:47.665Z,497.10
2019-05-01T02:36:15.611Z,258.57
2019-05-01T02:38:44.317Z,242.57
2019-05-01T02:41:13.217Z,281.52
2019-05-01T02:43:43.140Z,516.30
2019-05-01T02:46:12.318Z,236.03
2019-05-01T02:48:42.621Z,320.48
2019-05-01T02:51:09.939Z,282.27
2019-05-01T02:53:40.364Z,397.50
2019-05-01T02:56:12.739Z,376.60
2019-05-01T02:58:41.635Z,117.57
2019-05-01T03:01:09.089Z,210.75
2019-05-01T03:03:35.932Z,133.90
2019-05-01T03:06:02.816Z,73.57
2019-05-01T03:08:30.004Z,217.10
2019-05-01T03:10:56.782Z,94.30
2019-05-01T03:13:23.541Z,128.12
2019-05-01T03:15:50.346Z,60.25
2019-05-01T03:18:25.017Z,154.05
2019-05-01T03:20:56.431Z,85.12
2019-05-01T03:23:28.188Z,124.53
2019-05-01T03:25:55.648Z,97.35
2019-05-01T03:28:22.979Z,114.77
2019-05-01T03:30:49.950Z,209.47
2019-05-01T03:33:16.971Z,235.80
2019-05-01T03:35:43.736Z,260.38
2019-05-01T03:38:11.071Z,122.10
2019-05-01T03:40:37.960Z,74.53
2019-05-01T03:43:04.795Z,92.30
2019-05-01T03:45:34.160Z,77.20
2019-05-01T03:48:01.640Z,119.75
2019-05-01T03:50:28.485Z,68.12
2019-05-01T03:52:55.841Z,118.87
2019-05-01T03:55:23.092Z,219.50
2019-05-01T03:57:50.549Z,244.87
2019-05-01T04:00:34.486Z,261.57
2019-05-01T04:03:05.817Z,454.65
2019-05-01T04:05:32.709Z,130.43
2019-05-01T04:07:59.685Z,101.50
2019-05-01T04:10:26.595Z,187.72
2019-05-01T04:12:53.245Z,113.50
2019-05-01T04:15:20.279Z,144.65
2019-05-01T04:17:49.184Z,142.55
2019-05-01T04:20:16.204Z,225.87
2019-05-01T04:22:44.072Z,254.05
2019-05-01T04:25:10.779Z,127.40
2019-05-01T04:27:39.376Z,186.57
2019-05-01T04:30:26.597Z,241.17
2019-05-01T04:32:55.516Z,229.55
2019-05-01T04:35:27.345Z,130.55
2019-05-01T04:37:54.464Z,130.43
2019-05-01T04:40:21.635Z,187.40
2019-05-01T04:42:48.347Z,49.83
2019-05-01T04:45:15.709Z,127.75
2019-05-01T04:47:42.886Z,124.42
2019-05-01T04:50:09.866Z,140.97
2019-05-01T04:52:36.890Z,155.55
2019-05-01T04:55:04.960Z,182.27
2019-05-01T04:57:32.070Z,106.60
2019-05-01T04:59:59.475Z,78.02
2019-05-01T05:02:31.044Z,92.05
2019-05-01T05:07:24.252Z,105.30
2019-05-01T05:09:51.269Z,76.42
2019-05-01T05:12:20.337Z,112.92
2019-05-01T05:14:49.112Z,149.23
2019-05-01T05:17:20.978Z,102.78
2019-05-01T05:19:49.298Z,92.45
2019-05-01T05:22:16.621Z,145.57
2019-05-01T05:24:43.572Z,273.60
2019-05-01T05:27:12.081Z,205.75
2019-05-01T05:29:39.329Z,94.87
2019-05-01T05:32:06.498Z,119.22
2019-05-01T05:34:34.014Z,104.75
2019-05-01T05:37:06.134Z,71.90
2019-05-01T05:39:41.339Z,110.92
2019-05-01T05:42:08.241Z,90.85
2019-05-01T05:44:34.950Z,65.00
2019-05-01T05:47:01.828Z,140.52
2019-05-01T05:49:29.229Z,124.47
2019-05-01T05:52:00.328Z,178.05
2019-05-01T05:54:30.977Z,383.85
2019-05-01T05:57:04.167Z,571.58
2019-05-01T05:59:50.821Z,207.80
2019-05-01T06:02:34.987Z,320.00
2019-05-01T06:05:19.652Z,285.02
2019-05-01T06:08:06.948Z,159.82
2019-05-01T06:10:38.875Z,77.45
2019-05-01T06:13:13.354Z,265.65
2019-05-01T06:15:50.929Z,301.67
2019-05-01T06:18:39.406Z,270.57
2019-05-01T06:21:26.129Z,246.43
2019-05-01T06:24:05.911Z,171.62
2019-05-01T06:26:32.213Z,139.18
2019-05-01T06:29:02.103Z,93.40
2019-05-01T06:31:29.231Z,368.63
2019-05-01T06:33:55.998Z,322.82
2019-05-01T06:36:23.924Z,266.70
2019-05-01T06:38:52.007Z,141.18
2019-05-01T06:41:19.346Z,187.65
2019-05-01T06:43:50.656Z,153.10
2019-05-01T06:46:27.396Z,208.28
2019-05-01T06:49:01.674Z,183.35
2019-05-01T06:51:33.606Z,74.97
2019-05-01T06:54:01.416Z,95.53
2019-05-01T06:56:28.221Z,118.72
2019-05-01T06:58:56.355Z,103.25
2019-05-01T07:01:24.067Z,114.10
2019-05-01T07:04:03.607Z,84.95
2019-05-01T07:06:19.737Z,61.00
2019-05-01T07:08:46.580Z,67.10
2019-05-01T07:11:15.589Z,137.85
2019-05-01T07:13:51.021Z,86.22
2019-05-01T07:16:18.682Z,76.20
2019-05-01T07:18:45.527Z,60.90
2019-05-01T07:21:12.340Z,129.47
2019-05-01T07:23:39.111Z,111.80
2019-05-01T07:26:10.026Z,222.00
2019-05-01T07:28:36.271Z,128.12
2019-05-01T07:31:05.175Z,154.95
2019-05-01T07:33:31.851Z,290.52
2019-05-01T07:35:58.995Z,172.95
2019-05-01T07:38:25.869Z,108.78
2019-05-01T07:40:52.726Z,76.10
2019-05-01T07:43:38.148Z,56.90
2019-05-01T07:46:06.951Z,54.63
2019-05-01T07:48:41.622Z,57.93
2019-05-01T07:51:06.936Z,51.40
2019-05-01T07:53:36.134Z,48.95
2019-05-01T07:56:03.248Z,70.67
2019-05-01T07:58:30.123Z,74.87
2019-05-01T08:01:01.960Z,80.92
2019-05-01T08:03:28.676Z,65.32
2019-05-01T08:05:55.460Z,65.62
2019-05-01T08:08:22.152Z,62.73
2019-05-01T08:10:48.872Z,56.15
2019-05-01T08:13:15.650Z,56.80
2019-05-01T08:15:42.352Z,56.02
2019-05-01T08:18:24.020Z,73.33
2019-05-01T08:20:50.558Z,63.17
2019-05-01T08:23:18.380Z,55.60
2019-05-01T08:25:45.137Z,62.88
2019-05-01T08:28:13.653Z,69.95
2019-05-01T08:30:48.061Z,59.42
2019-05-01T08:33:16.057Z,68.90
2019-05-01T08:35:42.993Z,79.58
2019-05-01T08:38:09.699Z,101.70
2019-05-01T08:40:37.344Z,83.20
2019-05-01T08:43:04.243Z,76.92
2019-05-01T08:45:35.916Z,76.12
2019-05-01T08:48:03.126Z,70.95
2019-05-01T08:50:29.824Z,71.07
2019-05-01T08:52:56.710Z,55.55
2019-05-01T08:55:23.452Z,56.23
2019-05-01T08:57:50.166Z,62.23
2019-05-01T09:00:16.983Z,56.30
2019-05-01T09:02:52.045Z,48.13
2019-05-01T09:05:28.300Z,50.95
2019-05-01T09:07:51.328Z,62.45
2019-05-01T09:10:16.979Z,49.93
2019-05-01T09:12:46.832Z,47.43
2019-05-01T09:15:14.727Z,55.33
2019-05-01T09:17:41.527Z,56.08
2019-05-01T09:20:08.409Z,51.30
2019-05-01T09:22:35.143Z,40.45
2019-05-01T09:25:02.166Z,46.08
2019-05-01T09:27:47.381Z,46.60
2019-05-01T09:30:16.622Z,39.40
2019-05-01T09:32:45.879Z,44.67
2019-05-01T09:35:15.981Z,43.75
2019-05-01T09:37:40.916Z,44.53
2019-05-01T09:40:09.084Z,39.23
2019-05-01T09:42:36.232Z,39.98
2019-05-01T09:45:05.445Z,38.67
2019-05-01T09:47:32.136Z,41.65
2019-05-01T09:49:58.976Z,40.83
2019-05-01T09:52:27.484Z,38.75
2019-05-01T09:54:55.982Z,40.48
2019-05-01T09:57:22.729Z,40.35
2019-05-01T09:59:49.399Z,44.05
2019-05-01T10:02:16.101Z,39.23
2019-05-01T10:04:42.868Z,42.70
2019-05-01T10:07:09.676Z,43.33
2019-05-01T10:09:36.373Z,43.95
2019-05-01T10:12:03.403Z,40.48
2019-05-01T10:14:31.739Z,46.05
2019-05-01T10:16:58.564Z,40.70
2019-05-01T10:19:25.384Z,43.52
2019-05-01T10:21:52.189Z,35.00
2019-05-01T10:24:19.053Z,36.27
2019-05-01T10:26:47.634Z,40.95
2019-05-01T10:29:32.981Z,37.13
2019-05-01T10:32:04.482Z,36.80
2019-05-01T10:34:43.084Z,37.63
2019-05-01T10:37:10.873Z,40.67
2019-05-01T10:39:37.652Z,41.23
2019-05-01T10:42:04.428Z,41.73
2019-05-01T10:44:31.189Z,40.67
2019-05-01T10:46:57.998Z,38.88
2019-05-01T10:49:24.782Z,40.12
2019-05-01T10:51:51.499Z,37.15
2019-05-01T10:54:18.294Z,41.42
2019-05-01T10:56:45.072Z,35.55
2019-05-01T10:59:11.881Z,36.70
2019-05-01T11:01:40.407Z,36.42
2019-05-01T11:04:07.175Z,36.25
2019-05-01T11:06:33.872Z,35.10
2019-05-01T11:09:00.571Z,38.75
2019-05-01T11:11:27.373Z,39.83
2019-05-01T11:13:54.091Z,39.98
2019-05-01T11:16:20.785Z,34.65
2019-05-01T11:18:47.570Z,41.68
2019-05-01T11:21:14.261Z,41.45
2019-05-01T11:23:41.997Z,41.42
2019-05-01T11:26:08.765Z,49.33
2019-05-01T11:28:35.438Z,41.28
2019-05-01T11:31:02.277Z,38.58
2019-05-01T11:33:39.713Z,40.65
2019-05-01T11:36:24.821Z,35.25
2019-05-01T11:38:56.191Z,32.28
2019-05-01T11:41:27.493Z,36.25
2019-05-01T11:43:54.418Z,36.50
2019-05-01T11:46:21.224Z,34.80
2019-05-01T11:48:47.936Z,35.73
2019-05-01T11:51:14.648Z,35.10
2019-05-01T11:53:41.406Z,37.75
2019-05-01T11:56:08.138Z,37.48
2019-05-01T11:58:34.841Z,35.73
2019-05-01T12:01:03.245Z,36.90
2019-05-01T12:03:29.971Z,37.17
2019-05-01T12:05:56.640Z,33.58
2019-05-01T12:08:23.380Z,36.23
2019-05-01T12:10:50.177Z,40.05
2019-05-01T12:13:16.941Z,35.08
2019-05-01T12:15:45.461Z,34.73
2019-05-01T12:18:12.152Z,36.20
2019-05-01T12:20:39.339Z,34.05
2019-05-01T12:23:06.053Z,34.45
2019-05-01T12:25:32.751Z,33.20
2019-05-01T12:27:59.491Z,34.58
2019-05-01T12:30:26.249Z,32.80
2019-05-01T12:32:53.018Z,32.58
2019-05-01T12:35:19.720Z,34.15
2019-05-01T12:37:46.385Z,37.48
2019-05-01T12:40:14.983Z,29.85
2019-05-01T12:42:41.684Z,28.57
2019-05-01T12:45:10.089Z,29.07
2019-05-01T12:47:41.851Z,28.57
2019-05-01T12:50:08.968Z,30.37
2019-05-01T12:55:36.814Z,28.10
2019-05-01T12:58:03.520Z,24.98
2019-05-01T13:00:45.463Z,27.55
2019-05-01T13:03:12.169Z,28.00
2019-05-01T13:05:38.828Z,26.77
2019-05-01T13:08:05.600Z,28.27
2019-05-01T13:10:32.373Z,26.00
2019-05-01T13:12:59.082Z,26.05
2019-05-01T13:15:25.858Z,24.60
2019-05-01T13:17:52.563Z,28.42
2019-05-01T13:20:19.332Z,25.27
2019-05-01T13:22:46.106Z,26.52
2019-05-01T13:25:12.822Z,23.87
2019-05-01T13:27:47.100Z,30.30
2019-05-01T13:30:17.145Z,27.58
2019-05-01T13:32:45.652Z,27.93
2019-05-01T13:35:12.365Z,28.77
2019-05-01T13:37:39.106Z,28.55
2019-05-01T13:40:07.626Z,28.32
2019-05-01T13:42:34.333Z,27.27
2019-05-01T13:45:01.168Z,28.65
2019-05-01T13:47:27.977Z,27.93
2019-05-01T13:49:54.755Z,28.90
2019-05-01T13:52:21.464Z,31.60
2019-05-01T13:54:48.223Z,28.02
2019-05-01T13:57:14.938Z,33.25
2019-05-01T13:59:41.728Z,29.52
2019-05-01T14:02:08.509Z,27.77
2019-05-01T14:04:35.321Z,26.27
2019-05-01T14:07:02.034Z,26.95
2019-05-01T14:09:30.672Z,27.32
2019-05-01T14:11:57.337Z,24.75
2019-05-01T14:14:24.040Z,28.00
2019-05-01T14:16:50.764Z,25.72
2019-05-01T14:19:17.497Z,28.62
2019-05-01T14:21:46.005Z,24.32
2019-05-01T14:24:14.581Z,30.48
2019-05-01T14:26:41.285Z,28.57
2019-05-01T14:29:08.049Z,30.92
2019-05-01T14:31:34.822Z,25.88
2019-05-01T14:34:01.529Z,30.95
2019-05-01T14:36:28.232Z,29.12
2019-05-01T14:38:55.089Z,31.05
2019-05-01T14:41:21.787Z,58.40
2019-05-01T14:43:48.488Z,29.32
2019-05-01T14:46:15.315Z,30.82
2019-05-01T14:48:42.057Z,40.45
2019-05-01T14:51:08.817Z,35.33
2019-05-01T14:53:35.593Z,65.17
2019-05-01T14:56:02.300Z,36.88
2019-05-01T14:58:29.011Z,21.42
2019-05-01T15:00:55.850Z,24.90
2019-05-01T15:03:22.562Z,23.10
2019-05-01T15:05:49.269Z,27.42
2019-05-01T15:08:16.005Z,22.82
2019-05-01T15:10:42.742Z,25.57
2019-05-01T15:13:17.180Z,24.05
2019-05-01T15:15:45.758Z,25.20
2019-05-01T15:18:30.593Z,22.85
2019-05-01T15:20:57.420Z,23.85
2019-05-01T15:23:24.127Z,22.73
2019-05-01T15:25:50.828Z,21.82
2019-05-01T15:28:17.609Z,23.62
2019-05-01T15:30:44.323Z,23.90
2019-05-01T15:33:11.021Z,24.57
2019-05-01T15:35:37.803Z,24.30
2019-05-01T15:38:04.450Z,26.25
2019-05-01T15:40:41.878Z,28.92
2019-05-01T15:43:10.394Z,34.35
2019-05-01T15:45:37.093Z,28.35
2019-05-01T15:48:03.900Z,31.27
2019-05-01T15:50:30.636Z,28.62
2019-05-01T15:52:57.353Z,30.57
2019-05-01T15:55:24.120Z,31.37
2019-05-01T15:57:50.812Z,27.17
2019-05-01T16:00:20.400Z,30.77
2019-05-01T16:02:47.181Z,31.77
2019-05-01T16:05:14.086Z,32.08
2019-05-01T16:07:40.749Z,34.38
2019-05-01T16:10:09.891Z,36.38
2019-05-01T16:12:38.396Z,34.90
2019-05-01T16:15:08.309Z,30.20
2019-05-01T16:17:35.081Z,33.58
2019-05-01T16:20:01.924Z,38.60
2019-05-01T16:22:28.650Z,35.33
2019-05-01T16:24:55.417Z,48.05
2019-05-01T16:27:22.084Z,39.95
2019-05-01T16:29:48.842Z,37.63
2019-05-01T16:32:15.589Z,36.70
2019-05-01T16:34:42.293Z,45.95
2019-05-01T16:37:09.019Z,45.55
2019-05-01T16:39:46.717Z,46.92
2019-05-01T16:42:13.430Z,39.58
2019-05-01T16:44:40.205Z,42.03
2019-05-01T16:47:06.941Z,42.10
2019-05-01T16:49:33.763Z,41.65
2019-05-01T16:52:00.501Z,40.05
2019-05-01T16:54:27.266Z,53.35
2019-05-01T16:56:53.974Z,36.10
2019-05-01T16:59:20.858Z,38.85
2019-05-01T17:01:49.360Z,39.83
2019-05-01T17:04:36.241Z,44.18
2019-05-01T17:07:04.971Z,41.58
2019-05-01T17:09:49.777Z,36.53
2019-05-01T17:12:18.320Z,45.28
2019-05-01T17:14:45.034Z,47.05
2019-05-01T17:17:13.574Z,37.98
2019-05-01T17:19:40.337Z,40.63
2019-05-01T17:22:09.363Z,39.48
2019-05-01T17:24:35.628Z,44.40
2019-05-01T17:27:02.321Z,45.43
2019-05-01T17:29:29.157Z,41.88
2019-05-01T17:31:56.942Z,36.70
2019-05-01T17:34:25.560Z,42.55
2019-05-01T17:36:52.225Z,39.30
2019-05-01T17:39:19.125Z,36.93
2019-05-01T17:41:45.829Z,39.78
2019-05-01T17:44:12.579Z,38.25
2019-05-01T17:46:41.809Z,41.68
2019-05-01T17:49:09.443Z,43.85
2019-05-01T17:51:36.416Z,39.00
2019-05-01T17:54:03.221Z,41.70
2019-05-01T17:56:29.998Z,44.75
2019-05-01T17:58:56.746Z,43.38
2019-05-01T18:01:42.252Z,38.17
2019-05-01T18:04:25.807Z,38.08
2019-05-01T18:06:52.584Z,47.03
2019-05-01T18:09:19.441Z,35.78
2019-05-01T18:11:47.352Z,51.05
2019-05-01T18:14:14.774Z,46.48
2019-05-01T18:16:42.588Z,43.50
2019-05-01T18:19:10.731Z,43.78
2019-05-01T18:21:37.532Z,43.20
2019-05-01T18:24:08.721Z,47.58
2019-05-01T18:26:38.792Z,37.58
2019-05-01T18:29:19.796Z,42.55
2019-05-01T18:31:46.531Z,43.63
2019-05-01T18:34:13.223Z,38.40
2019-05-01T18:36:41.797Z,46.90
2019-05-01T18:39:17.134Z,41.50
2019-05-01T18:41:52.642Z,51.37
2019-05-01T18:44:19.556Z,45.17
2019-05-01T18:46:46.248Z,43.05
2019-05-01T18:49:13.231Z,46.37
2019-05-01T18:51:40.679Z,38.80
2019-05-01T18:54:07.838Z,38.73
2019-05-01T18:56:38.261Z,41.37
2019-05-01T18:59:03.205Z,39.67
2019-05-01T19:01:30.013Z,48.80
2019-05-01T19:03:56.781Z,42.90
2019-05-01T19:06:23.505Z,38.35
2019-05-01T19:08:50.209Z,37.42
2019-05-01T19:11:17.201Z,45.30
2019-05-01T19:13:43.877Z,37.78
2019-05-01T19:16:10.579Z,39.03
2019-05-01T19:18:38.814Z,38.45
2019-05-01T19:21:05.817Z,36.80
2019-05-01T19:23:33.377Z,42.75
2019-05-01T19:26:05.255Z,44.58
2019-05-01T19:28:29.503Z,42.10
2019-05-01T19:30:56.853Z,42.38
2019-05-01T19:33:23.742Z,38.17
2019-05-01T19:35:50.463Z,42.55
2019-05-01T19:38:18.750Z,48.48
2019-05-01T19:40:45.727Z,36.42
2019-05-01T19:43:12.571Z,47.40
2019-05-01T19:45:39.228Z,51.35
2019-05-01T19:48:06.407Z,37.73
2019-05-01T19:50:33.204Z,48.65
2019-05-01T19:52:59.927Z,43.13
2019-05-01T19:55:26.682Z,42.30
2019-05-01T19:57:53.393Z,37.83
2019-05-01T20:00:40.792Z,43.48
2019-05-01T20:03:11.617Z,45.83
2019-05-01T20:05:38.286Z,51.77
2019-05-01T20:08:05.074Z,37.25
2019-05-01T20:10:31.875Z,48.90
2019-05-01T20:12:58.823Z,38.30
2019-05-01T20:15:33.799Z,55.63
2019-05-01T20:18:04.945Z,45.73
2019-05-01T20:20:33.569Z,41.65
2019-05-01T20:23:00.337Z,47.35
2019-05-01T20:25:27.216Z,56.63
2019-05-01T20:27:54.201Z,43.00
2019-05-01T20:30:21.321Z,42.50
2019-05-01T20:32:48.030Z,54.33
2019-05-01T20:35:14.742Z,38.45
2019-05-01T20:37:41.468Z,45.33
2019-05-01T20:40:11.331Z,43.68
2019-05-01T20:42:37.308Z,35.80
2019-05-01T20:45:12.725Z,48.35
2019-05-01T20:47:35.668Z,36.53
2019-05-01T20:50:06.555Z,41.50
2019-05-01T20:52:33.775Z,45.35
2019-05-01T20:55:04.018Z,52.27
2019-05-01T20:57:32.910Z,49.60
2019-05-01T20:59:59.977Z,53.13
2019-05-01T21:02:26.736Z,52.70
2019-05-01T21:05:10.353Z,46.15
2019-05-01T21:07:39.628Z,59.18
2019-05-01T21:10:06.571Z,49.58
2019-05-01T21:12:33.431Z,46.23
2019-05-01T21:15:00.102Z,53.30
2019-05-01T21:17:26.882Z,37.08
2019-05-01T21:19:54.441Z,55.90
2019-05-01T21:22:23.298Z,57.03
2019-05-01T21:24:50.041Z,48.15
2019-05-01T21:27:16.758Z,45.83
2019-05-01T21:29:44.497Z,46.30
2019-05-01T21:32:13.472Z,53.55
2019-05-01T21:34:40.306Z,47.73
2019-05-01T21:37:07.077Z,58.13
2019-05-01T21:39:33.890Z,52.83
2019-05-01T21:42:04.741Z,53.10
2019-05-01T21:44:32.863Z,53.73
2019-05-01T21:47:00.025Z,63.80
2019-05-01T21:49:28.760Z,62.48
2019-05-01T21:51:55.938Z,52.88
2019-05-01T21:54:22.754Z,53.98
2019-05-01T21:56:49.565Z,65.45
2019-05-01T21:59:16.372Z,60.10
2019-05-01T22:01:43.504Z,54.63
2019-05-01T22:04:10.227Z,56.65
2019-05-01T22:06:37.085Z,63.15
2019-05-01T22:09:10.557Z,60.70
2019-05-01T22:11:37.846Z,47.98
2019-05-01T22:14:06.369Z,56.02
2019-05-01T22:16:33.540Z,54.45
2019-05-01T22:19:04.965Z,50.90
2019-05-01T22:21:33.636Z,53.98
2019-05-01T22:24:10.712Z,64.03
2019-05-01T22:26:45.467Z,48.85
2019-05-01T22:29:16.766Z,60.88
2019-05-01T22:31:57.528Z,63.80
2019-05-01T22:34:27.553Z,56.13
2019-05-01T22:36:54.499Z,60.52
2019-05-01T22:39:22.980Z,61.50
2019-05-01T22:41:49.731Z,47.25
2019-05-01T22:44:17.934Z,61.68
2019-05-01T22:46:45.265Z,68.62
2019-05-01T22:49:12.004Z,60.40
2019-05-01T22:51:38.766Z,56.95
2019-05-01T22:54:06.626Z,64.35
2019-05-01T22:56:33.338Z,60.12
2019-05-01T22:59:00.157Z,62.30
2019-05-01T23:01:27.239Z,67.78
2019-05-01T23:03:58.724Z,56.25
2019-05-01T23:06:25.641Z,67.97
2019-05-01T23:08:52.448Z,58.70
2019-05-01T23:11:20.487Z,50.88
2019-05-01T23:13:47.343Z,59.67
2019-05-01T23:16:15.718Z,55.28
2019-05-01T23:18:42.407Z,51.00
2019-05-01T23:21:09.856Z,53.55
2019-05-01T23:23:37.849Z,55.10
2019-05-01T23:26:04.552Z,51.92
2019-05-01T23:28:34.970Z,56.13
2019-05-01T23:30:59.848Z,55.38
2019-05-01T23:33:26.561Z,54.95
2019-05-01T23:35:53.337Z,65.15
2019-05-01T23:38:19.997Z,61.40
2019-05-01T23:40:50.984Z,59.67
2019-05-01T23:43:15.349Z,47.80
2019-05-01T23:45:42.049Z,59.55
2019-05-01T23:48:08.799Z,63.80
2019-05-01T23:50:35.654Z,65.75
2019-05-01T23:53:02.383Z,69.90
2019-05-01T23:55:29.101Z,68.17
2019-05-01T23:57:55.878Z,62.85
